Latest Weather Observations for Wagga Wagga

IDN60801

Issued at 2:13 am EDT Friday 29 January 2021 (issued every 10 minutes, with the page automatically refreshed every 10 minutes)

About weather observations | Map of weather stations | Latest weather observations for NSW | Other Formats
Station Details ID: 072150 Name: WAGGA WAGGA AMO Lat: -35.16 Lon: 147.46 Height: 212.0 m
Data from the previous 72 hours. | See also: Recent months at Wagga Wagga
Date/Time
EDT
Temp
°C
App
Temp
°C
Dew
Point
°C
Rel
Hum
%
Delta-T
°C
Wind Press
QNH
hPa
Press
MSL
hPa
Rain since
9am
mm
Dir  Spd
km/h
Gust
km/h
Spd
kts
Gust
kts
29/02:00am 15.8 11.1 14.3 91 0.9 ENE 32 46 17 25 1015.3 1014.2 32.0
29/01:30am 15.9 11.4 14.8 93 0.6 ENE 32 39 17 21 1015.7 1014.6 32.0
29/01:00am 16.0 11.2 14.7 92 0.8 ENE 33 46 18 25 1016.3 1015.3 31.8
29/12:30am 16.4 13.4 14.8 90 0.9 NE 24 30 13 16 1017.1 1016.1 31.4
29/12:00am 16.5 12.9 14.3 87 1.3 NE 26 35 14 19 1017.1 1016.1 31.2
 
Date/Time
EDT
Temp
°C
App
Temp
°C
Dew
Point
°C
Rel
Hum
%
Delta-T
°C
Wind Press
QNH
hPa
Press
MSL
hPa
Rain since
9am
mm
Dir  Spd
km/h
Gust
km/h
Spd
kts
Gust
kts
28/11:30pm 16.8 12.0 14.1 84 1.6 NE 32 50 17 27 1016.5 1015.5 31.2
28/11:27pm 16.7 12.3 14.2 85 1.4 NE 30 50 16 27 1016.5 1015.5 31.2
28/11:00pm 16.4 12.2 14.6 89 1.0 ENE 30 43 16 23 1016.9 1015.9 31.2
28/10:30pm 16.3 12.2 14.8 91 0.9 ENE 30 37 16 20 1016.9 1015.9 31.0
28/10:00pm 16.5 12.8 14.9 90 0.9 ENE 28 35 15 19 1017.6 1016.6 30.6
28/09:30pm 16.7 13.8 15.2 91 0.9 ENE 24 33 13 18 1018.0 1017.0 30.4
28/09:00pm 16.7 13.1 15.2 91 0.9 ENE 28 33 15 18 1017.8 1016.8 30.2
28/08:30pm 16.6 13.4 15.3 92 0.8 ENE 26 32 14 17 1017.9 1016.9 29.8
28/08:00pm 16.7 12.8 15.4 92 0.8 ENE 30 37 16 20 1017.3 1016.3 29.6
28/07:30pm 17.2 14.5 15.7 91 0.9 ENE 24 37 13 20 1017.6 1016.6 28.8
28/07:00pm 17.5 14.3 16.4 93 0.7 E 28 33 15 18 1017.2 1016.2 28.6
28/06:30pm 17.3 14.2 16.5 95 0.5 E 28 35 15 19 1017.1 1016.1 28.6
28/06:00pm 17.2 15.0 17.0 99 0.1 ENE 24 32 13 17 1017.3 1016.3 28.4
28/05:30pm 17.0 14.8 16.8 99 0.1 ENE 24 32 13 17 1017.6 1016.6 28.0
28/05:00pm 16.9 14.2 16.7 99 0.1 ENE 26 35 14 19 1017.5 1016.5 27.4
28/04:30pm 16.8 14.9 16.8 100 0.0 ENE 22 30 12 16 1018.1 1017.1 26.6
28/04:00pm 16.9 13.9 16.7 99 0.1 ENE 28 35 15 19 1018.0 1017.0 25.6
28/03:30pm 16.9 14.2 16.7 99 0.1 ENE 26 37 14 20 1018.3 1017.3 24.2
28/03:00pm 16.8 13.4 16.8 100 0.0 E 30 37 16 20 1018.3 1017.3 21.0
28/02:30pm 17.0 13.0 16.8 99 0.1 E 33 48 18 26 1018.2 1017.2 18.0
28/02:00pm 17.3 13.3 16.7 96 0.4 E 33 44 18 24 1018.5 1017.5 15.6
28/01:30pm 17.1 13.8 16.9 99 0.1 E 30 39 16 21 1018.0 1017.0 14.8
28/01:00pm 17.3 14.8 17.1 99 0.1 ENE 26 35 14 19 1018.2 1017.2 13.2
28/12:30pm 17.3 14.0 17.1 99 0.1 ENE 30 39 16 21 1018.2 1017.2 12.6
28/12:00pm 17.3 14.0 17.1 99 0.1 ENE 30 37 16 20 1017.8 1016.8 11.4
28/11:30am 17.3 15.1 17.0 98 0.2 ENE 24 35 13 19 1017.9 1016.9 10.0
28/11:00am 17.4 16.1 16.9 97 0.3 ENE 19 26 10 14 1018.5 1017.5 7.2
28/10:30am 17.4 15.5 16.6 95 0.5 ENE 22 28 12 15 1017.9 1016.9 5.0
28/10:00am 19.0 16.8 14.3 74 2.7 ENE 19 28 10 15 1018.8 1017.8 1.6
28/09:49am 20.8 18.7 13.7 64 4.1 ENE 17 28 9 15 1017.9 1016.9 0.0
28/09:42am 21.9 18.8 12.2 54 5.5 ENE 20 30 11 16 1017.3 1016.3 0.0
28/09:30am 22.1 16.6 12.4 54 5.5 ENE 33 48 18 26 1016.5 1015.5 0.0
28/09:00am 22.3 16.1 12.5 53 5.6 E 37 48 20 26 1015.9 1014.8 0.0
28/08:30am 22.1 15.7 12.1 53 5.7 E 37 50 20 27 1015.9 1014.8 0.0
28/08:00am 21.5 14.4 12.1 55 5.3 E 41 54 22 29 1015.3 1014.2 0.0
28/07:30am 21.0 15.1 12.4 58 4.9 E 35 48 19 26 1015.3 1014.2 0.0
28/07:00am 20.7 16.2 12.7 60 4.6 E 28 33 15 18 1015.0 1013.9 0.0
28/06:30am 20.3 14.8 12.5 61 4.4 E 33 39 18 21 1014.7 1013.6 0.0
28/06:00am 20.5 15.3 12.7 61 4.5 E 32 41 17 22 1014.3 1013.2 0.0
28/05:30am 20.4 15.5 12.6 61 4.4 E 30 37 16 20 1014.0 1013.0 0.0
28/05:00am 20.4 15.9 12.6 61 4.4 E 28 37 15 20 1013.8 1012.8 0.0
28/04:30am 20.5 16.0 12.7 61 4.5 E 28 37 15 20 1013.8 1012.8 0.0
28/04:00am 20.6 16.2 12.8 61 4.5 E 28 39 15 21 1014.0 1013.0 0.0
28/03:30am 20.8 15.5 13.0 61 4.5 E 33 41 18 22 1014.0 1013.0 0.0
28/03:00am 20.8 15.5 13.0 61 4.5 E 33 43 18 23 1013.9 1012.9 0.0
28/02:30am 21.0 15.3 12.9 60 4.7 E 35 50 19 27 1014.0 1013.0 0.0
28/02:00am 21.1 15.4 13.0 60 4.7 E 35 48 19 26 1013.9 1012.9 0.0
28/01:50am 21.1 16.0 13.0 60 4.7 E 32 52 17 28 1013.9 1012.9 0.0
28/01:30am 21.1 16.3 13.0 60 4.7 E 30 39 16 21 1014.0 1013.0 0.0
28/01:00am 21.1 16.1 12.3 57 5.0 E 30 39 16 21 1013.9 1012.9 0.0
28/12:30am 21.3 15.8 11.9 55 5.3 E 32 39 17 21 1014.2 1013.1 0.0
28/12:00am 21.4 16.9 11.4 53 5.6 E 26 37 14 20 1014.4 1013.3 0.0
 
Date/Time
EDT
Temp
°C
App
Temp
°C
Dew
Point
°C
Rel
Hum
%
Delta-T
°C
Wind Press
QNH
hPa
Press
MSL
hPa
Rain since
9am
mm
Dir  Spd
km/h
Gust
km/h
Spd
kts
Gust
kts
27/11:30pm 21.4 16.8 11.1 52 5.7 E 26 33 14 18 1014.2 1013.1 0.0
27/11:00pm 21.6 15.9 11.0 51 5.9 E 32 44 17 24 1014.0 1013.0 0.0
27/10:30pm 21.7 15.3 10.8 50 6.1 E 35 50 19 27 1013.6 1012.6 0.0
27/10:00pm 21.8 15.2 10.0 47 6.5 E 35 48 19 26 1013.2 1012.2 0.0
27/09:30pm 22.1 15.1 9.9 46 6.7 ENE 37 48 20 26 1013.2 1012.2 0.0
27/09:00pm 22.5 17.4 10.6 47 6.6 ENE 28 44 15 24 1013.1 1012.1 0.0
27/08:30pm 23.2 17.5 11.9 49 6.4 ENE 33 50 18 27 1012.6 1011.6 0.0
27/08:00pm 24.3 19.3 13.5 51 6.4 ENE 32 44 17 24 1011.9 1010.9 0.0
27/07:30pm 25.3 20.4 13.8 49 6.8 ENE 32 43 17 23 1011.6 1010.5 0.0
27/07:00pm 26.3 21.0 14.1 47 7.3 ENE 35 46 19 25 1010.6 1009.5 0.0
27/06:30pm 27.6 22.9 14.9 45 7.8 ENE 33 43 18 23 1010.3 1009.2 0.0
27/06:00pm 29.7 25.1 15.0 40 9.1 E 33 41 18 22 1010.1 1009.0 0.0
27/05:30pm 29.3 25.1 14.7 41 8.9 ENE 30 39 16 21 1009.8 1008.7 0.0
27/05:00pm 30.6 27.5 15.5 40 9.4 ENE 26 33 14 18 1009.8 1008.7 0.0
27/04:30pm 30.8 28.1 15.6 39 9.5 ENE 24 33 13 18 1009.9 1008.8 0.0
27/04:00pm 30.9 28.1 15.3 38 9.7 ENE 24 30 13 16 1009.9 1008.8 0.0
27/03:30pm 31.4 29.1 15.8 39 9.8 NE 22 32 12 17 1010.0 1008.9 0.0
27/03:00pm 30.9 28.8 16.1 41 9.3 NE 22 35 12 19 1010.1 1009.0 0.0
27/02:30pm 30.9 29.5 16.9 43 8.9 NE 20 32 11 17 1010.2 1009.1 0.0
27/02:00pm 29.9 27.9 17.4 47 8.0 NE 24 32 13 17 1010.5 1009.4 0.0
27/01:30pm 29.6 28.2 17.1 47 7.9 E 20 30 11 16 1010.7 1009.6 0.0
27/01:00pm 29.6 29.2 18.1 50 7.4 NE 17 26 9 14 1010.9 1009.8 0.0
27/12:30pm 28.7 28.7 18.2 53 6.8 ENE 15 26 8 14 1010.9 1009.8 0.0
27/12:00pm 28.3 28.1 18.4 55 6.4 NE 17 26 9 14 1010.8 1009.7 0.0
27/11:30am 27.3 27.4 19.1 61 5.3 NE 17 26 9 14 1010.8 1009.7 0.0
27/11:00am 26.4 26.9 20.0 68 4.2 NE 17 20 9 11 1010.6 1009.5 0.0
27/10:30am 24.8 26.8 20.7 78 2.7 ENE 11 22 6 12 1010.5 1009.4 0.0
27/10:00am 24.8 27.9 21.5 82 2.2 E 7 11 4 6 1010.5 1009.4 0.0
27/09:54am 24.9 28.3 21.6 82 2.2 ESE 6 9 3 5 1010.4 1009.3 0.0
27/09:51am 24.6 27.8 21.3 82 2.2 SE 6 9 3 5 1010.4 1009.3 0.0
27/09:30am 23.0 25.8 20.9 88 1.4 NE 7 11 4 6 1010.5 1009.4 0.0
27/09:00am 21.7 25.3 20.5 93 0.8 NW 2 9 1 5 1010.3 1009.2 2.2
27/08:49am 21.1 25.2 20.8 98 0.2 CALM 0 0 0 0 1010.3 1009.2 2.2
27/08:30am 20.6 24.4 20.1 97 0.3 CALM 0 0 0 0 1010.1 1009.0 2.2
27/08:00am 19.6 21.8 19.3 98 0.2 WSW 6 7 3 4 1009.7 1008.6 2.2
27/07:30am 19.2 20.8 19.2 100 0.0 WNW 9 11 5 6 1009.1 1008.1 2.2
27/07:00am 19.2 21.2 19.2 100 0.0 WSW 7 9 4 5 1008.5 1007.5 2.0
27/06:52am 19.3 21.0 19.3 100 0.0 WSW 9 9 5 5 1008.5 1007.5 2.0
27/06:30am 19.2 21.2 19.2 100 0.0 W 7 9 4 5 1008.2 1007.2 2.0
27/06:00am 19.4 21.5 19.4 100 0.0 NW 7 7 4 4 1007.7 1006.7 2.0
27/05:30am 20.1 22.2 20.1 100 0.0 S 9 11 5 6 1007.2 1006.1 2.0
27/05:00am 19.7 22.9 19.7 100 0.0 SE 2 9 1 5 1006.8 1005.7 2.0
27/04:30am 20.1 22.5 20.1 100 0.0 SSE 7 9 4 5 1006.5 1005.4 2.0
27/04:00am 18.6 20.3 18.6 100 0.0 SW 7 9 4 5 1006.1 1005.0 2.0
27/03:30am 20.2 22.3 20.2 100 0.0 ESE 9 9 5 5 1006.0 1004.9 2.0
27/03:00am 19.9 22.2 19.9 100 0.0 SSE 7 9 4 5 1006.1 1005.0 2.0
27/02:30am 20.6 23.3 20.6 100 0.0 SSW 7 7 4 4 1006.2 1005.1 2.0
27/02:14am 20.4 24.3 20.4 100 0.0 CALM 0 0 0 0 1006.3 1005.2 2.0
27/02:00am 20.3 24.2 20.3 100 0.0 CALM 0 0 0 0 1006.3 1005.2 2.0
27/01:30am 20.8 24.9 20.8 100 0.0 CALM 0 0 0 0 1006.2 1005.1 2.0
27/01:08am 21.2 25.5 21.2 100 0.0 CALM 0 0 0 0 1006.4 1005.3 2.0
27/01:01am 21.0 25.2 21.0 100 0.0 CALM 0 0 0 0 1006.5 1005.4 2.0
27/01:00am 21.0 25.2 21.0 100 0.0 CALM 0 0 0 0 1006.5 1005.4 2.0
27/12:30am 21.1 25.4 21.1 100 0.0 CALM 0 0 0 0 1006.4 1005.3 2.0
27/12:00am 21.4 25.8 21.4 100 0.0 CALM 0 0 0 0 1006.3 1005.2 2.0
 
Date/Time
EDT
Temp
°C
App
Temp
°C
Dew
Point
°C
Rel
Hum
%
Delta-T
°C
Wind Press
QNH
hPa
Press
MSL
hPa
Rain since
9am
mm
Dir  Spd
km/h
Gust
km/h
Spd
kts
Gust
kts
26/11:35pm 21.8 26.4 21.8 100 0.0 CALM 0 0 0 0 1006.2 1005.1 2.0
26/11:30pm 21.8 26.4 21.8 100 0.0 CALM 0 0 0 0 1006.2 1005.1 2.0
26/11:00pm 22.0 26.7 22.0 100 0.0 CALM 0 0 0 0 1006.1 1005.0 2.0
26/10:30pm 22.3 27.2 22.3 100 0.0 CALM 0 0 0 0 1006.0 1004.9 2.0
26/10:00pm 22.4 27.3 22.4 100 0.0 CALM 0 4 0 2 1005.6 1004.5 2.0
26/09:30pm 22.6 26.5 22.6 100 0.0 N 6 9 3 5 1005.1 1004.0 2.0
26/09:29pm 22.5 26.4 22.5 100 0.0 N 6 9 3 5 1005.1 1004.0 2.0
26/09:00pm 22.9 26.0 22.9 100 0.0 N 11 15 6 8 1004.9 1003.8 2.0
26/08:50pm 23.0 26.6 23.0 100 0.0 N 9 13 5 7 1004.8 1003.7 2.0
26/08:30pm 23.3 27.3 22.8 97 0.3 N 6 9 3 5 1004.4 1003.3 2.0
26/08:00pm 23.3 27.2 23.0 98 0.2 NW 7 11 4 6 1003.8 1002.8 2.0
26/07:30pm 23.3 26.3 22.6 96 0.5 N 11 17 6 9 1003.5 1002.5 2.0
26/07:00pm 23.3 26.3 22.6 96 0.5 WNW 11 15 6 8 1003.5 1002.5 2.0
26/06:30pm 23.0 24.9 22.0 94 0.7 W 15 19 8 10 1003.3 1002.2 2.0
26/06:00pm 23.2 24.9 22.4 95 0.5 WSW 17 20 9 11 1003.1 1002.0 1.6
26/05:30pm 23.6 25.5 22.8 95 0.5 WSW 17 22 9 12 1003.1 1002.0 1.4
26/05:29pm 23.6 25.5 22.8 95 0.5 WSW 17 19 9 10 1003.1 1002.0 1.4
26/05:19pm 23.8 25.5 22.4 92 0.9 WSW 17 24 9 13 1003.0 1001.9 1.4
26/05:00pm 24.3 26.1 21.8 86 1.7 WNW 15 24 8 13 1003.0 1001.9 1.4
26/04:30pm 24.3 25.9 22.2 88 1.4 NW 17 24 9 13 1003.0 1001.9 1.4
26/04:00pm 23.8 25.7 22.1 90 1.1 NW 15 19 8 10 1002.9 1001.8 1.4
26/03:30pm 23.4 24.7 22.4 94 0.7 WNW 19 24 10 13 1002.8 1001.7 1.4
26/03:00pm 25.8 25.4 21.0 75 3.2 NW 24 32 13 17 1002.8 1001.7 0.8
26/02:30pm 25.6 26.8 21.5 78 2.7 NW 17 24 9 13 1002.7 1001.6 0.6
26/02:00pm 25.3 26.2 21.6 80 2.5 NW 19 24 10 13 1003.0 1001.9 0.6
26/01:30pm 24.5 25.5 21.8 85 1.8 NW 19 22 10 12 1003.2 1002.1 0.6
26/01:00pm 24.3 26.1 21.2 83 2.1 NNW 13 17 7 9 1003.3 1002.2 0.4
26/12:30pm 23.8 25.3 20.5 82 2.2 NW 13 17 7 9 1003.2 1002.1 0.4
26/12:00pm 23.4 24.4 20.3 83 2.0 NNW 15 26 8 14 1003.2 1002.1 0.4
26/11:30am 24.1 23.7 19.4 75 3.0 NNW 20 35 11 19 1003.3 1002.2 0.2
26/11:00am 25.6 27.2 18.3 64 4.7 NNE 7 11 4 6 1002.9 1001.8 0.0
26/10:30am 24.9 27.8 18.1 66 4.3 CALM 0 0 0 0 1002.8 1001.7 0.0
26/10:00am 24.6 25.9 18.5 69 3.9 ESE 9 9 5 5 1002.5 1001.4 0.0
26/09:30am 24.1 25.6 18.1 69 3.8 WSW 7 11 4 6 1003.1 1002.0 0.0
26/09:00am 24.2 23.1 17.7 67 4.1 SW 20 28 11 15 1003.0 1001.9 0.0
26/08:30am 26.7 25.2 15.4 50 6.9 W 17 22 9 12 1003.0 1001.9 0.0
26/08:00am 26.6 25.8 15.0 49 7.1 W 13 19 7 10 1002.3 1001.2 0.0
26/07:30am 26.4 24.7 13.5 45 7.7 WSW 15 17 8 9 1001.9 1000.8 0.0
26/07:00am 26.6 24.3 10.3 36 9.2 WNW 13 17 7 9 1001.5 1000.4 0.0
26/06:30am 27.0 24.3 8.9 32 10.0 NW 13 17 7 9 1001.3 1000.2 0.0
26/06:00am 27.6 24.8 8.5 30 10.6 N 13 15 7 8 1000.7 999.6 0.0
26/05:30am 28.2 24.9 8.0 28 11.0 N 15 19 8 10 1000.2 999.1 0.0
26/05:00am 28.5 24.7 7.7 27 11.4 N 17 20 9 11 1000.0 998.9 0.0
26/04:30am 29.2 24.9 7.7 26 11.8 WNW 20 28 11 15 1000.1 999.0 0.0
26/04:00am 28.6 24.7 8.8 29 11.1 WNW 19 35 10 19 1000.4 999.3 0.0
26/03:30am 28.0 24.0 8.3 29 10.8 N 19 28 10 15 999.6 998.5 0.0
26/03:00am 28.4 24.4 8.1 28 11.2 N 19 33 10 18 999.8 998.7 0.0
26/02:30am 28.6 24.3 7.8 27 11.4 N 20 30 11 16 1000.2 999.1 0.0

Other formats

Comma delimited format used in spreadsheet applications
http://www.bom.gov.au/fwo/IDN60801/IDN60801.94910.axf

JavaScript Object Notation format (JSON) in row-major order
http://www.bom.gov.au/fwo/IDN60801/IDN60801.94910.json

Data quality

Most of these data are generated automatically and are frequently updated. Quality checks on data are not normally performed. It is possible for incorrect values to appear. Refer to information at About Latest Weather Observations and please check the disclaimer before using these data.